• Join FlightAware (Why Join?)
  • Login
  • US Flag 
08:55AM EDT


 

Airport Tracker/Info


-or-


 

Live Flight TrackerFlight Track Log ✈ DAL3759 ✈ 05-Jun-2013 ✈ KDTW - KORF

Flight Track Log - Related Links

Times and Time Zones

All times are in EDT time to prevent confusion due to time zone crossing. See the DAL3759 flight status page for this flight to view local times or setup timezone preferences in your user account.

Time Position Orientation Groundspeed Altitude Reporting Facility
EDT Latitude Longitude Course Direction KTS MPH feet Rate Location/Type
07:22AM 42.1994 -83.3581 114° Southeast 169 194 1,400  Level Cleveland Center
07:23AM 42.1383 -83.3806 195° South 216 249 4,400 2,460 Climbing Cleveland Center
07:24AM 42.0700 -83.3636 170° South 272 313 7,200 2,520 Climbing Cleveland Center
07:25AM 42.1463 -82.8901 101° East  Level FlightAware Approximate
07:25AM 42.0614 -83.2878 99° East 278 320 8,800  Level Cleveland Center
07:26AM 42.1155 -82.7380 98° East  Level FlightAware Approximate
07:26AM 42.0558 -83.1756 94° East 316 364 10,100  Level Cleveland Center
07:27AM 42.0992 -82.5810 114° Southeast  Level FlightAware Approximate
07:27AM 42.0669 -83.0447 83° East 354 407 10,000  Level Cleveland Center
07:28AM 42.0700 -82.9019 88° East 375 432 12,300 2,100 Climbing Cleveland Center
07:29AM 42.0747 -82.7594 87° East 380 437 14,300 1,860 Climbing Cleveland Center
07:30AM 42.0817 -82.6114 86° East 386 444 16,100 1,800 Climbing Cleveland Center
07:31AM 42.0822 -82.4603 90° East 393 452 17,900 1,380 Climbing Cleveland Center
07:32AM 42.0594 -82.3058 101° East 404 465 18,900 1,200 Climbing Cleveland Center
07:33AM 42.0367 -82.1517 101° East 410 472 20,300 1,260 Climbing Cleveland Center
07:34AM 41.9758 -82.0217 122° Southeast 417 480 21,500 840 Climbing Cleveland Center
07:35AM 41.8811 -81.9331 145° Southeast 403 464 22,000 240 Climbing Cleveland Center
07:36AM 41.7842 -81.8389 144° Southeast 421 484 22,000 540 Level Cleveland Center
07:37AM 41.6872 -81.7481 145° Southeast 431 496 23,100 960 Climbing Cleveland Center
07:38AM 41.5797 -81.6492 145° Southeast 431 496 24,000 780 Climbing Cleveland Center
07:39AM 41.4719 -81.5892 157° South 423 487 24,700 660 Climbing Cleveland Center
07:40AM 41.3703 -81.5350 158° South 423 487 25,400 600 Climbing Cleveland Center
07:41AM 41.2581 -81.4725 157° South 428 493 26,000 780 Climbing Cleveland Center
07:42AM 41.1481 -81.4131 158° South 433 498 27,000 1,020 Climbing Cleveland Center
07:43AM 41.0319 -81.3539 159° South 438 504 28,100 960 Climbing Cleveland Center
07:44AM 40.9239 -81.2975 158° South 431 496 29,000 420 Climbing Cleveland Center
07:45AM 40.8117 -81.2361 158° South 436 502 29,000  Level Cleveland Center
07:46AM 40.6972 -81.1747 158° South 442 509 29,000  Level Cleveland Center
07:47AM 40.5683 -81.0997 156° South 451 519 29,000  Level Cleveland Center
07:48AM 40.4561 -81.0114 149° Southeast 456 525 29,000  Level Cleveland Center
07:49AM 40.3419 -80.9236 150° Southeast 472 543 29,000  Level Cleveland Center
07:50AM 40.2294 -80.8386 150° Southeast 472 543 29,000  Level Cleveland Center
07:51AM 40.1169 -80.7514 149° Southeast 472 543 29,000  Level Cleveland Center
07:52AM 40.0089 -80.6672 149° Southeast 466 536 29,000  Level Cleveland Center
07:53AM 39.8983 -80.5831 150° Southeast 466 536 29,000  Level Cleveland Center
07:54AM 39.7858 -80.4967 149° Southeast 466 536 29,000  Level Cleveland Center
07:56AM 39.5683 -80.3325 150° Southeast 446 513 29,000  Level Washington Center
07:57AM 39.4589 -80.2500 150° Southeast 451 519 29,000  Level Washington Center
07:58AM 39.3475 -80.1650 149° Southeast 456 525 29,000  Level Washington Center
07:59AM 39.2381 -80.0831 150° Southeast 456 525 29,000  Level Washington Center
08:00AM 39.1244 -80.0011 151° Southeast 456 525 29,000  Level Washington Center
08:01AM 39.0044 -79.9192 152° Southeast 456 525 29,000  Level Washington Center
08:02AM 38.8947 -79.8381 150° Southeast 450 518 29,000  Level Washington Center
08:03AM 38.7828 -79.7569 151° Southeast 450 518 29,000  Level Washington Center
08:04AM 38.6853 -79.6822 149° Southeast 450 518 29,000  Level Washington Center
08:05AM 38.5733 -79.6017 151° Southeast 450 518 29,000 -360 Level Washington Center
08:06AM 38.4656 -79.5189 149° Southeast 450 518 28,300 -900 Descending Washington Center
08:07AM 38.3494 -79.4361 151° Southeast 462 532 27,300 -660 Descending Washington Center
08:08AM 38.2250 -79.3450 150° Southeast 467 537 27,000 -180 Descending Washington Center
08:09AM 38.1131 -79.2628 150° Southeast 467 537 27,000  Level Washington Center
08:10AM 38.0008 -79.1808 150° Southeast 472 543 27,000 -300 Level Washington Center
08:11AM 37.8972 -79.0839 144° Southeast 467 537 26,500 -780 Descending Washington Center
08:12AM 37.8494 -78.9292 111° Southeast 450 518 25,500 -1,020 Descending Washington Center
08:13AM 37.8117 -78.7881 109° East 457 526 24,500 -960 Descending Washington Center
08:14AM 37.7656 -78.6339 111° Southeast 457 526 23,600 -960 Descending Washington Center
08:15AM 37.7233 -78.4850 110° East 457 526 22,600 -1,020 Descending Washington Center
08:16AM 37.6789 -78.3311 110° East 457 526 21,600 -840 Descending Washington Center
08:17AM 37.6364 -78.1853 110° East 457 526 21,000 -300 Descending Washington Center
08:18AM 37.5853 -78.0292 112° Southeast 445 512 21,000 -120 Level Washington Center
08:19AM 37.5464 -77.8889 109° East 433 498 20,800 -1,140 Descending Washington Center
08:20AM 37.5219 -77.7522 103° East 420 483 18,800 -2,160 Descending Washington Center
08:21AM 37.5117 -77.6183 95° East 395 455 16,500 -1,440 Descending Washington Center
08:22AM 37.5053 -77.5003 94° East 386 444 16,000 -300 Descending Washington Center
08:23AM 37.4947 -77.3639 96° East 386 444 16,000  Level Washington Center
08:24AM 37.4864 -77.2303 94° East 386 444 16,000  Level Washington Center
08:25AM 37.4775 -77.1147 96° East 385 443 16,000  Level Washington Center
08:26AM 37.4647 -76.9628 96° East 383 441 16,000  Level Washington Center
08:27AM 37.4556 -76.8292 95° East 382 440 16,000 -60 Level Washington Center
08:28AM 37.4486 -76.7061 94° East 382 440 15,900 -600 Descending Washington Center
08:29AM 37.4247 -76.5647 102° East 374 430 14,800 -900 Descending Washington Center
08:30AM 37.4047 -76.4283 100° East 374 430 14,000 -840 Descending Washington Center
08:31AM 37.3511 -76.3442 129° Southeast 345 397 13,300 -1,440 Descending Washington Center
08:32AM 37.2892 -76.2472 129° Southeast 311 358 11,200 -1,920 Descending Washington Center
08:33AM 37.2436 -76.1764 129° Southeast 300 345 9,500 -1,980 Descending Washington Center
08:34AM 37.1625 -76.1547 168° South 279 321 7,500 -1,920 Descending Washington Center
08:35AM 37.0853 -76.1489 177° South 279 321 5,600 -1,260 Descending Washington Center
08:36AM 37.0203 -76.1875 205° Southwest 256 295 5,000 -600 Descending Washington Center